Time;durP1;ratioP1;P1;durP2;ratioP2;P2;SDS_P1;SDS_P2;PMS_P1;PMS_P2;Temp;Humidity;BMP_temperature;BMP_pressure;BME280_temperature;BME280_humidity;BME280_pressure;Samples;Min_cycle;Max_cycle;Signal;HPM_P1;HPM_P2
2023/02/18 00:00:53;0.00;0.00;0.62;0.00;0.00;0.62;1.90;1.10;;;22.90;24.30;;;;;;2264051;61;20355;-66
2023/02/18 00:03:38;0.00;0.00;0.62;0.00;0.00;0.62;1.70;1.20;;;22.80;24.20;;;;;;2260991;61;20376;-66
2023/02/18 00:06:29;0.00;0.00;0.62;0.00;0.00;0.62;2.50;1.27;;;22.80;24.20;;;;;;2263982;61;20437;-66
2023/02/18 00:09:15;0.00;0.00;0.62;0.00;0.00;0.62;2.03;1.00;;;22.80;24.20;;;;;;2264117;61;20402;-66
2023/02/18 00:12:00;0.00;0.00;0.62;0.00;0.00;0.62;1.70;1.00;;;22.80;24.20;;;;;;2261030;61;20467;-66
2023/02/18 00:14:45;0.00;0.00;0.62;0.00;0.00;0.62;1.43;0.90;;;22.80;24.20;;;;;;2260880;61;20958;-66
2023/02/18 00:17:30;0.00;0.00;0.62;0.00;0.00;0.62;1.90;1.00;;;22.80;24.20;;;;;;2264140;61;20421;-66
2023/02/18 00:20:15;0.00;0.00;0.62;0.00;0.00;0.62;1.93;1.20;;;22.80;24.70;;;;;;2264027;61;21161;-65
2023/02/18 00:23:02;0.00;0.00;0.62;0.00;0.00;0.62;2.23;1.20;;;22.80;24.20;;;;;;2261048;61;20893;-66
2023/02/18 00:25:46;0.00;0.00;0.62;0.00;0.00;0.62;2.90;1.00;;;22.80;24.20;;;;;;2264454;61;20372;-66
2023/02/18 00:28:31;0.00;0.00;0.62;0.00;0.00;0.62;2.07;1.10;;;22.80;24.20;;;;;;2260921;61;20380;-66
2023/02/18 00:31:21;0.00;0.00;0.62;0.00;0.00;0.62;2.20;1.30;;;22.80;24.20;;;;;;2264260;61;20906;-66
2023/02/18 00:34:05;0.00;0.00;0.62;0.00;0.00;0.62;1.80;1.10;;;22.80;24.20;;;;;;2264468;61;20406;-70
2023/02/18 00:36:51;0.00;0.00;0.62;0.00;0.00;0.62;2.33;1.07;;;22.80;24.20;;;;;;2260975;61;20410;-66
2023/02/18 00:39:37;0.00;0.00;0.62;0.00;0.00;0.62;1.80;0.90;;;22.80;24.20;;;;;;2263576;61;20449;-66
2023/02/18 00:42:22;0.00;0.00;0.62;0.00;0.00;0.62;1.70;1.00;;;22.80;24.20;;;;;;2264470;61;20455;-65
2023/02/18 00:45:08;0.00;0.00;0.62;0.00;0.00;0.62;1.77;1.07;;;22.80;24.20;;;;;;2261015;61;20391;-65
2023/02/18 00:47:53;0.00;0.00;0.62;0.00;0.00;0.62;1.40;0.90;;;22.80;24.20;;;;;;2260728;61;20442;-65
2023/02/18 00:50:38;0.00;0.00;0.62;0.00;0.00;0.62;1.80;1.00;;;22.80;24.20;;;;;;2260529;61;20772;-66
2023/02/18 00:53:23;0.00;0.00;0.62;0.00;0.00;0.62;2.23;0.90;;;22.80;24.20;;;;;;2264038;61;20932;-65
2023/02/18 00:56:09;0.00;0.00;0.62;0.00;0.00;0.62;1.50;0.80;;;22.80;24.20;;;;;;2264326;61;20376;-65
2023/02/18 00:58:54;0.00;0.00;0.62;0.00;0.00;0.62;1.60;1.00;;;22.80;24.20;;;;;;2263584;61;20901;-66
2023/02/18 01:01:39;0.00;0.00;0.62;0.00;0.00;0.62;1.87;0.77;;;22.80;24.20;;;;;;2260892;61;20467;-65
2023/02/18 01:04:25;0.00;0.00;0.62;0.00;0.00;0.62;2.57;1.00;;;22.70;24.10;;;;;;2264297;61;20360;-65
2023/02/18 01:07:10;0.00;0.00;0.62;0.00;0.00;0.62;1.97;1.20;;;22.70;24.10;;;;;;2263842;61;21011;-66
2023/02/18 01:09:54;0.00;0.00;0.62;0.00;0.00;0.62;1.70;0.73;;;22.70;24.10;;;;;;2263884;61;20360;-66
2023/02/18 01:12:40;0.00;0.00;0.62;0.00;0.00;0.62;1.60;0.80;;;22.70;24.10;;;;;;2260755;61;20426;-65
2023/02/18 01:15:25;0.00;0.00;0.62;0.00;0.00;0.62;1.60;0.87;;;22.70;24.10;;;;;;2261355;61;20406;-66
2023/02/18 01:18:11;0.00;0.00;0.62;0.00;0.00;0.62;1.60;0.90;;;22.70;24.10;;;;;;2261199;61;20356;-66
2023/02/18 01:20:56;0.00;0.00;0.62;0.00;0.00;0.62;1.73;1.10;;;22.70;24.10;;;;;;2260377;61;20471;-66
2023/02/18 01:23:41;0.00;0.00;0.62;0.00;0.00;0.62;1.97;0.90;;;22.70;24.10;;;;;;2261565;61;20378;-66
2023/02/18 01:26:26;0.00;0.00;0.62;0.00;0.00;0.62;1.90;1.00;;;22.70;24.10;;;;;;2261760;61;20844;-66
2023/02/18 01:29:13;0.00;0.00;0.62;0.00;0.00;0.62;1.67;1.00;;;22.70;24.10;;;;;;2264253;61;20856;-66
2023/02/18 01:31:58;0.00;0.00;0.62;0.00;0.00;0.62;1.60;0.80;;;22.70;24.10;;;;;;2261458;61;20383;-66
2023/02/18 01:34:42;0.00;0.00;0.62;0.00;0.00;0.62;1.90;1.10;;;22.70;24.10;;;;;;2264491;61;20410;-65
2023/02/18 01:37:27;0.00;0.00;0.62;0.00;0.00;0.62;1.97;1.00;;;22.70;24.10;;;;;;2264868;61;20903;-66
2023/02/18 01:40:17;0.00;0.00;0.62;0.00;0.00;0.62;1.60;0.90;;;22.70;24.10;;;;;;2261245;61;20405;-66
2023/02/18 01:43:02;0.00;0.00;0.62;0.00;0.00;0.62;1.70;0.70;;;22.70;24.10;;;;;;2261223;61;20383;-66
2023/02/18 01:45:58;0.00;0.00;0.62;0.00;0.00;0.62;2.90;0.80;;;22.70;24.10;;;;;;2261418;61;20934;-65
2023/02/18 01:48:47;0.00;0.00;0.62;0.00;0.00;0.62;2.47;0.90;;;22.70;24.10;;;;;;2264882;61;20768;-66
2023/02/18 01:51:38;0.00;0.00;0.62;0.00;0.00;0.62;1.50;0.90;;;22.70;24.10;;;;;;2264460;61;20387;-66
2023/02/18 01:54:28;0.00;0.00;0.62;0.00;0.00;0.62;1.83;0.83;;;22.70;24.70;;;;;;2261431;61;20498;-66
2023/02/18 01:57:16;0.00;0.00;0.62;0.00;0.00;0.62;1.63;0.90;;;22.70;24.10;;;;;;2261253;61;20368;-66
2023/02/18 02:00:10;0.00;0.00;0.62;0.00;0.00;0.62;2.20;0.87;;;22.70;24.10;;;;;;2264430;61;20367;-66
2023/02/18 02:03:00;0.00;0.00;0.62;0.00;0.00;0.62;1.50;0.80;;;22.70;24.10;;;;;;2264911;61;20380;-66
2023/02/18 02:05:45;0.00;0.00;0.62;0.00;0.00;0.62;1.77;0.90;;;22.70;24.10;;;;;;2264749;61;20368;-66
2023/02/18 02:08:33;0.00;0.00;0.62;0.00;0.00;0.62;1.40;0.70;;;22.70;24.10;;;;;;2264922;61;20357;-65
2023/02/18 02:11:50;0.00;0.00;0.62;0.00;0.00;0.62;1.93;0.80;;;22.70;24.70;;;;;;2264593;61;20364;-66
2023/02/18 02:14:57;0.00;0.00;0.62;0.00;0.00;0.62;1.70;0.80;;;22.60;24.00;;;;;;2264817;61;20360;-66
2023/02/18 02:17:53;0.00;0.00;0.62;0.00;0.00;0.62;1.50;0.80;;;22.60;24.10;;;;;;2264510;61;20433;-67
2023/02/18 02:21:22;0.00;0.00;0.62;0.00;0.00;0.62;1.93;0.90;;;22.60;24.10;;;;;;2260543;61;20449;-67
2023/02/18 02:24:53;0.00;0.00;0.62;0.00;0.00;0.62;1.40;0.80;;;22.60;24.10;;;;;;2264483;61;20399;-65
2023/02/18 02:28:28;0.00;0.00;0.62;0.00;0.00;0.62;1.40;0.80;;;22.60;24.10;;;;;;2261235;61;20475;-65
2023/02/18 02:31:46;0.00;0.00;0.62;0.00;0.00;0.62;2.10;0.90;;;22.60;24.60;;;;;;2264373;61;20360;-66
2023/02/18 02:34:41;0.00;0.00;0.62;0.00;0.00;0.62;2.57;0.70;;;22.60;24.10;;;;;;2260271;61;20422;-66
2023/02/18 02:37:35;0.00;0.00;0.62;0.00;0.00;0.62;1.50;0.80;;;22.60;24.10;;;;;;2264589;61;20923;-65
2023/02/18 02:40:25;0.00;0.00;0.62;0.00;0.00;0.62;1.80;0.97;;;22.60;24.10;;;;;;2260794;61;20488;-66
2023/02/18 02:43:18;0.00;0.00;0.62;0.00;0.00;0.62;1.60;0.70;;;22.60;24.10;;;;;;2264434;61;20524;-66
2023/02/18 02:46:13;0.00;0.00;0.62;0.00;0.00;0.62;1.60;0.80;;;22.60;24.10;;;;;;2264272;61;20735;-67
2023/02/18 02:49:11;0.00;0.00;0.62;0.00;0.00;0.62;1.40;0.80;;;22.60;24.10;;;;;;2264401;61;20379;-66
2023/02/18 02:52:04;0.00;0.00;0.62;0.00;0.00;0.62;1.47;0.67;;;22.60;24.10;;;;;;2264284;61;20376;-65
2023/02/18 02:54:50;0.00;0.00;0.62;0.00;0.00;0.62;1.67;0.80;;;22.60;24.10;;;;;;2261278;61;20364;-66
2023/02/18 02:57:54;0.00;0.00;0.62;0.00;0.00;0.62;1.27;0.67;;;22.60;24.10;;;;;;2261313;61;20364;-65
2023/02/18 03:01:01;0.00;0.00;0.62;0.00;0.00;0.62;2.43;0.80;;;22.60;24.10;;;;;;2260857;61;20966;-66
2023/02/18 03:04:16;0.00;0.00;0.62;0.00;0.00;0.62;1.80;0.93;;;22.60;24.10;;;;;;2264319;61;20916;-65
2023/02/18 03:07:46;0.00;0.00;0.62;0.00;0.00;0.62;1.40;0.73;;;22.60;24.10;;;;;;2261076;61;20388;-66
2023/02/18 03:10:47;0.00;0.00;0.62;0.00;0.00;0.62;1.40;0.73;;;22.60;24.10;;;;;;2262591;61;20368;-66
2023/02/18 03:13:56;0.00;0.00;0.62;0.00;0.00;0.62;1.60;0.70;;;22.60;24.10;;;;;;2261240;61;20355;-65
2023/02/18 03:16:49;0.00;0.00;0.62;0.00;0.00;0.62;2.00;0.80;;;22.60;24.10;;;;;;2261523;61;20904;-66
2023/02/18 03:19:38;0.00;0.00;0.62;0.00;0.00;0.62;1.83;0.80;;;22.60;24.10;;;;;;2260737;61;20930;-66
2023/02/18 03:22:31;0.00;0.00;0.62;0.00;0.00;0.62;1.40;0.73;;;22.60;24.10;;;;;;2261093;61;20927;-66
2023/02/18 03:25:18;0.00;0.00;0.62;0.00;0.00;0.62;1.90;0.90;;;22.60;24.10;;;;;;2261247;61;20360;-66
2023/02/18 03:28:08;0.00;0.00;0.62;0.00;0.00;0.62;1.83;0.87;;;22.60;24.10;;;;;;2264298;61;20403;-67
2023/02/18 03:30:57;0.00;0.00;0.62;0.00;0.00;0.62;1.50;0.73;;;22.60;24.10;;;;;;2264160;61;20573;-65
2023/02/18 03:33:46;0.00;0.00;0.62;0.00;0.00;0.62;1.30;0.67;;;22.60;24.10;;;;;;2264058;61;20409;-66
2023/02/18 03:36:33;0.00;0.00;0.62;0.00;0.00;0.62;1.80;0.70;;;22.60;24.10;;;;;;2264555;61;20444;-65
2023/02/18 03:39:22;0.00;0.00;0.62;0.00;0.00;0.62;1.33;0.70;;;22.60;24.10;;;;;;2263813;61;21007;-67
2023/02/18 03:42:07;0.00;0.00;0.62;0.00;0.00;0.62;1.50;0.80;;;22.60;24.10;;;;;;2260756;61;20392;-66
2023/02/18 03:44:52;0.00;0.00;0.62;0.00;0.00;0.62;1.30;0.70;;;22.60;24.10;;;;;;2261139;61;20410;-66
2023/02/18 03:47:39;0.00;0.00;0.62;0.00;0.00;0.62;1.40;0.70;;;22.60;24.10;;;;;;2260915;61;20937;-66
2023/02/18 03:50:23;0.00;0.00;0.62;0.00;0.00;0.62;1.40;0.70;;;22.60;24.60;;;;;;2260999;61;20356;-66
2023/02/18 03:53:08;0.00;0.00;0.62;0.00;0.00;0.62;1.60;0.90;;;22.60;24.10;;;;;;2261104;61;20785;-66
2023/02/18 03:55:56;0.00;0.00;0.62;0.00;0.00;0.62;1.30;0.73;;;22.60;24.10;;;;;;2263669;61;20406;-66
2023/02/18 03:58:41;0.00;0.00;0.62;0.00;0.00;0.62;1.37;0.80;;;22.50;24.00;;;;;;2261029;61;20360;-66
2023/02/18 04:01:26;0.00;0.00;0.62;0.00;0.00;0.62;1.40;0.80;;;22.50;24.10;;;;;;2264097;61;20947;-67
2023/02/18 04:04:10;0.00;0.00;0.62;0.00;0.00;0.62;1.50;1.00;;;22.60;24.10;;;;;;2264296;61;20888;-67
2023/02/18 04:06:55;0.00;0.00;0.62;0.00;0.00;0.62;1.30;0.80;;;22.50;24.00;;;;;;2264050;61;20480;-66
2023/02/18 04:09:40;0.00;0.00;0.62;0.00;0.00;0.62;2.00;0.90;;;22.50;24.00;;;;;;2263959;61;20448;-66
2023/02/18 04:12:26;0.00;0.00;0.62;0.00;0.00;0.62;1.90;0.80;;;22.50;24.00;;;;;;2264411;61;20912;-66
2023/02/18 04:15:12;0.00;0.00;0.62;0.00;0.00;0.62;1.30;0.70;;;22.50;24.00;;;;;;2264346;61;20851;-66
2023/02/18 04:18:00;0.00;0.00;0.62;0.00;0.00;0.62;1.50;0.80;;;22.50;24.00;;;;;;2260638;61;20357;-67
2023/02/18 04:20:47;0.00;0.00;0.62;0.00;0.00;0.62;1.50;0.87;;;22.50;24.00;;;;;;2260654;61;20923;-66
2023/02/18 04:23:33;0.00;0.00;0.62;0.00;0.00;0.62;2.03;0.80;;;22.50;24.00;;;;;;2264239;61;20789;-67
2023/02/18 04:26:18;0.00;0.00;0.62;0.00;0.00;0.62;1.30;0.70;;;22.50;24.10;;;;;;2263844;61;20368;-67
2023/02/18 04:29:04;0.00;0.00;0.62;0.00;0.00;0.62;1.50;0.80;;;22.50;24.10;;;;;;2263886;61;20361;-66
2023/02/18 04:31:49;0.00;0.00;0.62;0.00;0.00;0.62;1.20;0.60;;;22.50;24.10;;;;;;2261060;61;20388;-66
2023/02/18 04:34:33;0.00;0.00;0.62;0.00;0.00;0.62;1.90;0.90;;;22.50;24.10;;;;;;2264272;61;20355;-67
2023/02/18 04:37:18;0.00;0.00;0.62;0.00;0.00;0.62;1.50;0.70;;;22.50;24.00;;;;;;2264212;61;20879;-67
2023/02/18 04:40:06;0.00;0.00;0.62;0.00;0.00;0.62;1.67;0.77;;;22.50;24.10;;;;;;2263093;61;20398;-67
2023/02/18 04:42:51;0.00;0.00;0.62;0.00;0.00;0.62;1.27;0.70;;;22.50;24.10;;;;;;2264098;61;20431;-67
2023/02/18 04:45:37;0.00;0.00;0.62;0.00;0.00;0.62;1.30;0.70;;;22.60;24.10;;;;;;2264353;61;20352;-67
2023/02/18 04:48:22;0.00;0.00;0.62;0.00;0.00;0.62;1.60;0.73;;;22.50;24.00;;;;;;2263513;61;20392;-67
2023/02/18 04:51:07;0.00;0.00;0.62;0.00;0.00;0.62;1.30;0.77;;;22.50;24.00;;;;;;2263771;61;20395;-67
2023/02/18 04:53:52;0.00;0.00;0.62;0.00;0.00;0.62;1.77;0.97;;;22.50;24.10;;;;;;2264044;61;20650;-67
2023/02/18 04:56:37;0.00;0.00;0.62;0.00;0.00;0.62;1.33;0.70;;;22.50;24.10;;;;;;2264955;61;20404;-67
2023/02/18 04:59:22;0.00;0.00;0.62;0.00;0.00;0.62;1.40;0.83;;;22.50;24.10;;;;;;2264126;61;20364;-66
2023/02/18 05:02:08;0.00;0.00;0.62;0.00;0.00;0.62;1.40;0.70;;;22.50;24.10;;;;;;2264598;61;20408;-67
2023/02/18 05:04:53;0.00;0.00;0.62;0.00;0.00;0.62;1.50;0.80;;;22.50;24.10;;;;;;2265082;61;20367;-66
2023/02/18 05:07:39;0.00;0.00;0.62;0.00;0.00;0.62;1.70;0.83;;;22.50;24.10;;;;;;2264940;61;20402;-67
2023/02/18 05:10:23;0.00;0.00;0.62;0.00;0.00;0.62;1.57;0.77;;;22.50;24.10;;;;;;2264428;61;20388;-67
2023/02/18 05:13:08;0.00;0.00;0.62;0.00;0.00;0.62;1.80;0.90;;;22.50;24.10;;;;;;2261209;61;20380;-68
2023/02/18 05:15:55;0.00;0.00;0.62;0.00;0.00;0.62;1.30;0.70;;;22.50;24.10;;;;;;2264733;61;20363;-68
2023/02/18 05:18:40;0.00;0.00;0.62;0.00;0.00;0.62;1.50;0.80;;;22.50;24.10;;;;;;2261308;61;20347;-67
2023/02/18 05:21:25;0.00;0.00;0.62;0.00;0.00;0.62;1.33;0.70;;;22.50;24.10;;;;;;2264309;61;20981;-66
2023/02/18 05:24:10;0.00;0.00;0.62;0.00;0.00;0.62;1.50;0.80;;;22.50;24.10;;;;;;2264607;61;20359;-66
2023/02/18 05:26:55;0.00;0.00;0.62;0.00;0.00;0.62;1.60;0.77;;;22.50;24.10;;;;;;2264852;61;20402;-67
2023/02/18 05:29:40;0.00;0.00;0.62;0.00;0.00;0.62;1.80;0.90;;;22.50;24.10;;;;;;2264686;61;20902;-67
2023/02/18 05:32:25;0.00;0.00;0.62;0.00;0.00;0.62;1.50;0.80;;;22.50;24.10;;;;;;2264452;61;20399;-67
2023/02/18 05:35:13;0.00;0.00;0.62;0.00;0.00;0.62;1.67;0.80;;;22.50;24.10;;;;;;2264030;61;20367;-67
2023/02/18 05:37:58;0.00;0.00;0.62;0.00;0.00;0.62;1.50;0.60;;;22.50;24.10;;;;;;2261455;61;20902;-67
2023/02/18 05:40:42;0.00;0.00;0.62;0.00;0.00;0.62;1.30;0.70;;;22.50;24.10;;;;;;2264271;61;20414;-67
2023/02/18 05:43:27;0.00;0.00;0.62;0.00;0.00;0.62;1.60;0.90;;;22.50;24.10;;;;;;2264418;61;21011;-67
2023/02/18 05:46:12;0.00;0.00;0.62;0.00;0.00;0.62;1.30;0.60;;;22.50;24.10;;;;;;2264562;61;20414;-67
2023/02/18 05:48:57;0.00;0.00;0.62;0.00;0.00;0.62;1.30;0.73;;;22.50;24.10;;;;;;2264526;61;20787;-67
2023/02/18 05:51:43;0.00;0.00;0.62;0.00;0.00;0.62;1.40;0.80;;;22.50;24.10;;;;;;2264626;61;20403;-67
2023/02/18 05:54:28;0.00;0.00;0.62;0.00;0.00;0.62;1.20;0.67;;;22.50;24.10;;;;;;2261067;61;20394;-67
2023/02/18 05:57:15;0.00;0.00;0.62;0.00;0.00;0.62;1.43;0.60;;;22.50;24.10;;;;;;2264783;61;20379;-67
2023/02/18 06:00:00;0.00;0.00;0.62;0.00;0.00;0.62;1.20;0.60;;;22.50;24.10;;;;;;2260961;61;20368;-67
2023/02/18 06:02:45;0.00;0.00;0.62;0.00;0.00;0.62;1.30;0.70;;;22.50;24.20;;;;;;2264435;61;20388;-67
2023/02/18 06:05:30;0.00;0.00;0.62;0.00;0.00;0.62;1.60;0.80;;;22.50;24.10;;;;;;2264652;61;20437;-66
2023/02/18 06:08:16;0.00;0.00;0.62;0.00;0.00;0.62;1.77;0.80;;;22.50;24.10;;;;;;2264381;61;20844;-66
2023/02/18 06:11:01;0.00;0.00;0.62;0.00;0.00;0.62;1.40;0.80;;;22.50;24.10;;;;;;2264490;61;20427;-67
2023/02/18 06:13:47;0.00;0.00;0.62;0.00;0.00;0.62;1.63;0.70;;;22.50;24.10;;;;;;2264567;61;20420;-67
2023/02/18 06:16:32;0.00;0.00;0.62;0.00;0.00;0.62;1.50;0.80;;;22.50;24.10;;;;;;2264177;61;20376;-68
2023/02/18 06:19:17;0.00;0.00;0.62;0.00;0.00;0.62;1.43;0.70;;;22.50;24.10;;;;;;2260859;61;20364;-67
2023/02/18 06:22:02;0.00;0.00;0.62;0.00;0.00;0.62;1.40;0.70;;;22.50;24.10;;;;;;2264742;61;20966;-68
2023/02/18 06:24:49;0.00;0.00;0.62;0.00;0.00;0.62;1.40;0.80;;;22.50;24.20;;;;;;2264242;61;20399;-67
2023/02/18 06:27:33;0.00;0.00;0.62;0.00;0.00;0.62;1.40;0.80;;;22.50;24.10;;;;;;2261208;61;20526;-66
2023/02/18 06:30:18;0.00;0.00;0.62;0.00;0.00;0.62;1.40;0.70;;;22.50;24.10;;;;;;2264149;61;20364;-67
2023/02/18 06:33:03;0.00;0.00;0.62;0.00;0.00;0.62;1.40;0.70;;;22.50;24.20;;;;;;2264551;61;20492;-68
2023/02/18 06:35:56;0.00;0.00;0.62;0.00;0.00;0.62;1.70;0.80;;;22.50;24.20;;;;;;2264606;61;20892;-67
2023/02/18 06:38:44;0.00;0.00;0.62;0.00;0.00;0.62;1.40;0.90;;;22.50;24.70;;;;;;2263984;61;20403;-64
2023/02/18 06:41:30;0.00;0.00;0.62;0.00;0.00;0.62;1.30;0.70;;;22.50;24.10;;;;;;2264489;61;20383;-64
2023/02/18 06:44:16;0.00;0.00;0.62;0.00;0.00;0.62;1.40;0.73;;;22.50;24.10;;;;;;2264584;61;20421;-67
2023/02/18 06:47:01;0.00;0.00;0.62;0.00;0.00;0.62;1.50;0.70;;;22.50;24.10;;;;;;2260893;61;20380;-67
2023/02/18 06:49:45;0.00;0.00;0.62;0.00;0.00;0.62;1.30;0.70;;;22.50;24.20;;;;;;2264252;61;20364;-66
2023/02/18 06:52:32;0.00;0.00;0.62;0.00;0.00;0.62;2.03;0.90;;;22.50;24.20;;;;;;2264644;61;20384;-66
2023/02/18 06:55:17;0.00;0.00;0.62;0.00;0.00;0.62;1.40;0.70;;;22.50;24.20;;;;;;2264509;61;20956;-66
2023/02/18 06:58:03;0.00;0.00;0.62;0.00;0.00;0.62;1.43;0.77;;;22.50;24.20;;;;;;2264453;61;20443;-67
2023/02/18 07:00:48;0.00;0.00;0.62;0.00;0.00;0.62;1.30;0.70;;;22.50;24.20;;;;;;2263796;61;20417;-66
2023/02/18 07:03:33;0.00;0.00;0.62;0.00;0.00;0.62;1.60;0.70;;;22.50;24.20;;;;;;2264384;61;20359;-66
2023/02/18 07:06:18;0.00;0.00;0.62;0.00;0.00;0.62;1.40;0.70;;;22.50;24.20;;;;;;2264649;61;20471;-68
2023/02/18 07:09:03;0.00;0.00;0.62;0.00;0.00;0.62;1.40;0.73;;;22.50;24.20;;;;;;2264137;61;20828;-65
2023/02/18 07:11:48;0.00;0.00;0.62;0.00;0.00;0.62;1.30;0.70;;;22.50;24.20;;;;;;2264369;61;20376;-67
2023/02/18 07:14:34;0.00;0.00;0.62;0.00;0.00;0.62;1.20;0.60;;;22.50;24.20;;;;;;2264413;61;20360;-67
2023/02/18 07:17:19;0.00;0.00;0.62;0.00;0.00;0.62;1.33;0.63;;;22.50;24.20;;;;;;2264098;61;20482;-66
2023/02/18 07:20:06;0.00;0.00;0.62;0.00;0.00;0.62;1.30;0.80;;;22.50;24.20;;;;;;2263703;61;20360;-67
2023/02/18 07:22:51;0.00;0.00;0.62;0.00;0.00;0.62;1.40;0.70;;;22.50;24.20;;;;;;2264491;61;20384;-66
2023/02/18 07:25:36;0.00;0.00;0.62;0.00;0.00;0.62;1.40;0.70;;;22.50;24.20;;;;;;2264169;61;20387;-68
2023/02/18 07:28:24;0.00;0.00;0.62;0.00;0.00;0.62;1.30;0.70;;;22.50;24.20;;;;;;2261483;61;21016;-67
2023/02/18 07:31:10;0.00;0.00;0.62;0.00;0.00;0.62;1.60;0.80;;;22.50;24.20;;;;;;2260617;61;20391;-67
2023/02/18 07:33:55;0.00;0.00;0.62;0.00;0.00;0.62;1.37;0.70;;;22.50;24.20;;;;;;2264066;61;20376;-66
2023/02/18 07:36:40;0.00;0.00;0.62;0.00;0.00;0.62;1.60;0.80;;;22.50;24.20;;;;;;2264480;61;20368;-67
2023/02/18 07:39:28;0.00;0.00;0.62;0.00;0.00;0.62;1.37;0.70;;;22.50;24.20;;;;;;2257320;61;20384;-66
2023/02/18 07:42:13;0.00;0.00;0.62;0.00;0.00;0.62;1.40;0.80;;;22.50;24.20;;;;;;2263932;61;20460;-67
2023/02/18 07:44:58;0.00;0.00;0.62;0.00;0.00;0.62;1.40;0.80;;;22.50;24.20;;;;;;2264250;61;20352;-66
2023/02/18 07:47:44;0.00;0.00;0.62;0.00;0.00;0.62;1.30;0.73;;;22.50;24.20;;;;;;2264180;61;20772;-67
2023/02/18 07:50:33;0.00;0.00;0.62;0.00;0.00;0.62;1.40;0.80;;;22.50;24.20;;;;;;2264404;61;20408;-66
2023/02/18 07:53:18;0.00;0.00;0.62;0.00;0.00;0.62;1.50;0.90;;;22.50;24.70;;;;;;2263881;61;20375;-67
2023/02/18 07:56:05;0.00;0.00;0.62;0.00;0.00;0.62;1.30;0.70;;;22.50;24.20;;;;;;2264150;61;20360;-67
2023/02/18 07:58:49;0.00;0.00;0.62;0.00;0.00;0.62;2.77;1.30;;;22.50;24.20;;;;;;2263727;61;20410;-67
2023/02/18 08:01:34;0.00;0.00;0.62;0.00;0.00;0.62;2.20;1.10;;;22.50;24.20;;;;;;2264102;61;20387;-66
2023/02/18 08:04:20;0.00;0.00;0.62;0.00;0.00;0.62;1.60;1.10;;;22.50;24.20;;;;;;2260815;61;20674;-68
2023/02/18 08:07:05;0.00;0.00;0.62;0.00;0.00;0.62;1.80;1.10;;;22.50;24.20;;;;;;2263931;61;20400;-68
2023/02/18 08:09:50;0.00;0.00;0.62;0.00;0.00;0.62;2.03;1.43;;;22.50;24.20;;;;;;2264339;61;20388;-67
2023/02/18 08:12:35;0.00;0.00;0.62;0.00;0.00;0.62;2.20;1.60;;;22.50;24.20;;;;;;2264487;61;20387;-67
2023/02/18 08:15:20;0.00;0.00;0.62;0.00;0.00;0.62;2.50;1.73;;;22.50;24.20;;;;;;2263421;61;20366;-65
2023/02/18 08:18:06;0.00;0.00;0.62;0.00;0.00;0.62;2.70;2.00;;;22.50;24.30;;;;;;2264053;61;20236;-66
2023/02/18 08:20:53;0.00;0.00;0.62;0.00;0.00;0.62;3.77;2.50;;;22.50;24.20;;;;;;2263884;61;20777;-65
2023/02/18 08:23:37;0.00;0.00;0.62;0.00;0.00;0.62;3.60;2.80;;;22.60;24.30;;;;;;2264327;61;20892;-65
2023/02/18 08:26:22;0.00;0.00;0.62;0.00;0.00;0.62;3.50;2.53;;;22.60;24.20;;;;;;2264392;61;20359;-65
2023/02/18 08:29:07;0.00;0.00;0.62;0.00;0.00;0.62;4.30;2.90;;;22.60;24.20;;;;;;2263462;61;20442;-66
2023/02/18 08:31:53;0.00;0.00;0.62;0.00;0.00;0.62;4.67;3.70;;;22.60;24.20;;;;;;2264247;61;20836;-66
2023/02/18 08:34:38;0.00;0.00;0.62;0.00;0.00;0.62;4.90;4.17;;;22.60;24.20;;;;;;2264652;61;20407;-67
2023/02/18 08:37:25;0.00;0.00;0.62;0.00;0.00;0.62;4.23;3.83;;;22.60;24.30;;;;;;2260305;61;20352;-66
2023/02/18 08:40:12;0.00;0.00;0.62;0.00;0.00;0.62;4.63;4.13;;;22.50;24.20;;;;;;2263545;61;20514;-66
2023/02/18 08:42:56;0.00;0.00;0.62;0.00;0.00;0.62;4.67;4.10;;;22.60;24.30;;;;;;2264206;61;20439;-68
2023/02/18 08:45:42;0.00;0.00;0.62;0.00;0.00;0.62;5.97;4.60;;;22.50;24.20;;;;;;2260891;61;20768;-66
2023/02/18 08:48:28;0.00;0.00;0.62;0.00;0.00;0.62;5.47;4.07;;;22.50;24.30;;;;;;2263959;61;20410;-65
2023/02/18 08:51:15;0.00;0.00;0.62;0.00;0.00;0.62;5.30;4.40;;;22.50;24.30;;;;;;2263738;61;20873;-66
2023/02/18 08:54:01;0.00;0.00;0.62;0.00;0.00;0.62;6.97;5.93;;;22.50;24.30;;;;;;2264346;61;20904;-65
2023/02/18 08:56:46;0.00;0.00;0.62;0.00;0.00;0.62;5.67;4.50;;;22.50;24.30;;;;;;2264391;61;20449;-66
2023/02/18 08:59:31;0.00;0.00;0.62;0.00;0.00;0.62;6.77;5.60;;;22.50;24.30;;;;;;2263216;61;20360;-65
2023/02/18 09:02:16;0.00;0.00;0.62;0.00;0.00;0.62;6.10;4.70;;;22.50;24.30;;;;;;2264065;61;20400;-67
2023/02/18 09:05:01;0.00;0.00;0.62;0.00;0.00;0.62;6.97;5.30;;;22.50;24.30;;;;;;2264053;61;20406;-66
2023/02/18 09:07:45;0.00;0.00;0.62;0.00;0.00;0.62;6.90;5.33;;;22.50;24.30;;;;;;2263718;61;20434;-68
2023/02/18 09:10:31;0.00;0.00;0.62;0.00;0.00;0.62;6.30;5.00;;;22.50;24.30;;;;;;2263577;61;20368;-65
2023/02/18 09:13:16;0.00;0.00;0.62;0.00;0.00;0.62;6.30;4.77;;;22.50;24.30;;;;;;2263971;61;20437;-66
2023/02/18 09:16:05;0.00;0.00;0.62;0.00;0.00;0.62;5.30;4.20;;;22.50;24.40;;;;;;2260989;61;20794;-66
2023/02/18 09:18:50;0.00;0.00;0.62;0.00;0.00;0.62;6.73;5.20;;;22.50;24.40;;;;;;2263995;61;20364;-65
2023/02/18 09:21:34;0.00;0.00;0.62;0.00;0.00;0.62;6.90;5.50;;;22.50;24.40;;;;;;2257552;61;20465;-66
2023/02/18 09:24:20;0.00;0.00;0.62;0.00;0.00;0.62;5.60;4.43;;;22.50;24.40;;;;;;2262731;61;20926;-66
2023/02/18 09:27:07;0.00;0.00;0.62;0.00;0.00;0.62;5.30;4.60;;;22.60;24.50;;;;;;2260835;61;20357;-66
2023/02/18 09:29:55;0.00;0.00;0.62;0.00;0.00;0.62;5.67;4.80;;;22.50;24.40;;;;;;2263587;61;20414;-66
2023/02/18 09:32:40;0.00;0.00;0.62;0.00;0.00;0.62;5.27;4.67;;;22.50;24.40;;;;;;2263928;61;20383;-67
2023/02/18 09:35:24;0.00;0.00;0.62;0.00;0.00;0.62;4.83;4.20;;;22.60;24.50;;;;;;2264054;61;20364;-65
2023/02/18 09:38:11;0.00;0.00;0.62;0.00;0.00;0.62;5.20;4.50;;;22.50;24.40;;;;;;2263878;61;20503;-66
2023/02/18 09:40:58;0.00;0.00;0.62;0.00;0.00;0.62;5.07;4.37;;;22.60;24.50;;;;;;2263485;61;20363;-66
2023/02/18 09:43:49;0.00;0.00;0.62;0.00;0.00;0.62;6.27;4.63;;;22.60;24.50;;;;;;2264176;61;20364;-65
2023/02/18 09:46:38;0.00;0.00;0.62;0.00;0.00;0.62;4.80;4.17;;;22.60;24.50;;;;;;2264739;61;20371;-67
2023/02/18 09:49:27;0.00;0.00;0.62;0.00;0.00;0.62;5.70;4.80;;;22.60;24.50;;;;;;2264369;61;20410;-65
2023/02/18 09:52:18;0.00;0.00;0.62;0.00;0.00;0.62;5.37;3.97;;;22.60;24.50;;;;;;2264847;61;20375;-66
2023/02/18 09:55:17;0.00;0.00;0.62;0.00;0.00;0.62;5.17;3.90;;;22.60;24.50;;;;;;2264446;61;20433;-67
2023/02/18 09:58:05;0.00;0.00;0.62;0.00;0.00;0.62;5.63;4.70;;;22.60;24.50;;;;;;2264624;61;20442;-65
2023/02/18 10:00:58;0.00;0.00;0.62;0.00;0.00;0.62;4.90;4.30;;;22.60;24.50;;;;;;2264507;61;20410;-67
2023/02/18 10:03:44;0.00;0.00;0.62;0.00;0.00;0.62;4.50;4.00;;;22.60;24.60;;;;;;2265062;61;20368;-66
2023/02/18 10:06:31;0.00;0.00;0.62;0.00;0.00;0.62;4.53;3.80;;;22.60;24.60;;;;;;2264466;61;20399;-66
2023/02/18 10:09:21;0.00;0.00;0.62;0.00;0.00;0.62;4.87;3.97;;;22.60;24.70;;;;;;2264062;61;20387;-66
2023/02/18 10:12:13;0.00;0.00;0.62;0.00;0.00;0.62;4.77;3.97;;;22.60;24.60;;;;;;2264692;61;20418;-66
2023/02/18 10:15:01;0.00;0.00;0.62;0.00;0.00;0.62;5.30;4.80;;;22.60;24.60;;;;;;2264572;61;20363;-66
2023/02/18 10:17:48;0.00;0.00;0.62;0.00;0.00;0.62;4.70;3.77;;;22.60;24.70;;;;;;2264669;61;20356;-66
2023/02/18 10:20:33;0.00;0.00;0.62;0.00;0.00;0.62;4.43;4.00;;;22.60;24.70;;;;;;2264061;61;20418;-66
2023/02/18 10:23:20;0.00;0.00;0.62;0.00;0.00;0.62;5.03;3.77;;;22.60;24.70;;;;;;2264531;61;20920;-66
2023/02/18 10:26:12;0.00;0.00;0.62;0.00;0.00;0.62;5.03;4.10;;;22.60;24.70;;;;;;2264884;61;20442;-66
2023/02/18 10:28:58;0.00;0.00;0.62;0.00;0.00;0.62;4.20;3.80;;;22.60;24.70;;;;;;2263897;61;20376;-66
2023/02/18 10:31:51;0.00;0.00;0.62;0.00;0.00;0.62;4.97;3.87;;;22.60;24.70;;;;;;2261596;61;20423;-66
2023/02/18 10:34:45;0.00;0.00;0.62;0.00;0.00;0.62;5.37;4.27;;;22.60;24.70;;;;;;2264609;61;20356;-66
2023/02/18 10:37:53;0.00;0.00;0.62;0.00;0.00;0.62;5.00;4.40;;;22.60;24.70;;;;;;2264580;61;20406;-65
2023/02/18 10:40:53;0.00;0.00;0.62;0.00;0.00;0.62;5.20;4.30;;;22.60;24.70;;;;;;2264247;61;20368;-66
2023/02/18 10:43:49;0.00;0.00;0.62;0.00;0.00;0.62;5.40;4.10;;;22.60;24.80;;;;;;2264320;61;20411;-65
2023/02/18 10:46:45;0.00;0.00;0.62;0.00;0.00;0.62;4.53;4.13;;;22.60;24.70;;;;;;2264517;61;20388;-66
2023/02/18 10:49:59;0.00;0.00;0.62;0.00;0.00;0.62;5.40;4.70;;;22.60;24.80;;;;;;2264377;61;20753;-66
2023/02/18 10:52:48;0.00;0.00;0.62;0.00;0.00;0.62;5.80;5.20;;;22.60;24.80;;;;;;2264230;61;20412;-67
2023/02/18 10:55:39;0.00;0.00;0.62;0.00;0.00;0.62;5.87;5.03;;;22.60;24.80;;;;;;2264806;61;20506;-68
2023/02/18 10:58:32;0.00;0.00;0.62;0.00;0.00;0.62;7.33;5.63;;;22.60;24.80;;;;;;2261193;61;20360;-65
2023/02/18 11:01:20;0.00;0.00;0.62;0.00;0.00;0.62;6.83;5.90;;;22.60;24.80;;;;;;2264421;61;20753;-66
2023/02/18 11:04:13;0.00;0.00;0.62;0.00;0.00;0.62;6.53;5.37;;;22.60;24.80;;;;;;2261105;61;20507;-67